X  Zatvori METAR podaci zračne luke     LDPL Pula Airport
Temperatura
66°F Temperatura
54°F Točka rosišta
64% Vlaga



Vjetar
6 MPS
10 KM/S
3 M/S
5 Čvorovi



10°
S
Trenutna situacija

Vedro Vedro
Tlak zraka 1018.92 (hPa) - 30.09 (inHg)
Vidljivost 6.2 (milje) - 10 (km)
Zračna luka
Kôd zračne luke LDPL

Lokacija: Pula Airport
Udaljenost: 39 (mi)

Metar:
LDPL 262330Z 01005KT CAVOK 19/12 Q1019

Vrijeme: 27-05-2022 01:30 CEST